Flight EZE74R

  • Submitted By: Dave Hardy
  • Departure Airport: Newcastle International (EGNT)
  • Arrival Airport: Cardiff (EGFF)
  • Aircraft: JS41 (G-MAJA)
  • Flight Time: 01.07
  • Date Submitted: 04/09/2009
  • Status: Accepted
Flight Details
Gross Revenue:
(15 load / £ 0.00 per unit
£ 0.00
Fuel Cost:
(1563 fuel used @ 0 / unit)
£ 0.00

Flight Details

  • VATAWARE Link: -

Additional Log Information:

View Log

[2009/04/09 15:44:00]
Flight IATA:EZE74R
Pilot Number:EZE0001
Company ICAO:EZE
Aircraft Type:JS41
PAX:15
Aircraft Registration:JS41
Departing Airport: EGNT
Destination Airport: EGFF
Alternate Airport:EGGD
Online: VATSIM
Route:EGNT..GASKO.Y99.NOKIN.N862.RILES..DOBEM..EGFF
Flight Level:19000
15:44 Zero fuel Weight: 17981 Lbs, Fuel Weight: 4252 Lbs
15:44 VATSIM:EGNT 040520Z 00000KT 1200 R07/P1500 BR MIFG FEW030 01/01 Q1010
15:44 VATSIM:EGFF 040520Z 27012KT 9999 FEW005 SCT006 BKN009 08/08 Q1015
15:44 Com1 Freq=119.70
15:44 VR= 176 Knots
15:44 V2= 175 Knots
15:44 Take-off
15:44 Take off Weight: 22230 Lbs
15:44 Wind: 182 @ 011 Knots Heading: 193
15:44 POS N55 00 11 W001 46 03
15:44 N11 36 N12 36
15:44 Gear Up: 176 Knots
15:44 Flaps: at 176 Knots
15:45 Com1 Freq=118.70
15:45 Com1 Freq=120.70
15:45 Com1 Freq=121.70
15:45 Com1 Freq=122.70
15:45 Com1 Freq=122.77
15:45 Com1 Freq=122.82
15:46 Com1 Freq=122.80
15:55 TOC
15:55 Fuel Weight: 3832 Lb
15:55 Flaps: at 212 Knots
15:59 Wind:192@048 Knots Heading: 218 Ground Speed: 263 Knots Altitude 18733 ft
16:14 Wind:186@046 Knots Heading: 198 Ground Speed: 259 Knots Altitude 18700 ft
16:27 TOD
16:27 Fuel Weight: 3007 Lb
16:29 Wind:192@055 Knots Heading: 184 Ground Speed: 245 Knots Altitude 16240 ft
16:32 Flaps: at 245 Knots
16:33 Flaps: at 222 Knots
16:37 Flaps: at 234 Knots
16:41 Flaps: at 166 Knots
16:41 Gear Down: 161 Knots
16:42 Com1 Freq=123.80
16:42 Com1 Freq=124.80
16:42 Com1 Freq=125.80
16:42 Com1 Freq=125.75
16:42 Com1 Freq=125.50
16:42 Com1 Freq=125.27
16:42 Com1 Freq=125.17
16:42 Com1 Freq=125.02
16:42 Com1 Freq=125.00
16:43 Com1 Freq=125.97
16:43 Com1 Freq=125.00
16:44 Wind:166@010 Knots Heading: 120 Ground Speed: 133 Knots Altitude 731 ft
16:44 Flaps: at 140 Knots
16:44 TouchDown:Rate -475 ft/min Speed: 113 Knots
16:45 VATSIM:EGFF 040520Z 27012KT 9999 FEW005 SCT006 BKN009 08/08 Q1015
16:45 Land
16:45 Wind:166@009 Knots
16:45 Heading: 117
16:45 Flight Duration: 01:01
16:45 Landing Weight: 20697 Lbs
16:45 POS N51 23 35 W003 19 58
16:51 Parking brakes on
16:51 Block to Block Duration: 01:07
16:51 Final Fuel: 2689 Lbls
16:51 Spent Fuel: 1563 Lbls
16:51 Flight Length: 232 NM
16:51 TOD Land Length: 58 NM

Route Map